Terminal Aerodrome Forecast
Issued by NWS

Home | Current Version | Previous Version | Text Only | Print | Product List | Glossary On
Versions: 1 2 3 4 5 6 7 8 9 10 11 12 13 14
549
FTUS45 KTFX 192120 AAB
TAFBZN
TAF AMD
KBZN 192120Z 1921/2018 VRB06KT P6SM FEW090 FEW110
     FM200800 24005KT P6SM SCT200
     FM201200 18005KT P6SM BKN110=

USA.gov is the U.S. government's official web portal to all federal, state and local government web resources and services.